createdAt,value
2023-04-23T00:09:59.833Z,5.3
2023-04-23T00:25:09.325Z,7.7
2023-04-23T00:40:18.809Z,4.3
2023-04-23T00:55:28.372Z,5.1
2023-04-23T01:10:37.357Z,10.4
2023-04-23T01:25:46.100Z,15.4
2023-04-23T01:40:55.519Z,19
2023-04-23T01:56:06.773Z,21.5
2023-04-23T02:11:16.511Z,23.2
2023-04-23T02:26:26.748Z,28.1
2023-04-23T02:41:36.301Z,27.7
2023-04-23T02:56:46.723Z,26.7
2023-04-23T03:11:56.183Z,29.3
2023-04-23T03:27:08.423Z,32.4
2023-04-23T03:42:18.175Z,36
2023-04-23T03:57:42.240Z,42.7
2023-04-23T04:12:51.947Z,44.2
2023-04-23T04:28:01.740Z,43.6
2023-04-23T04:43:12.027Z,41.2
2023-04-23T04:58:21.580Z,46
2023-04-23T05:13:30.804Z,43.4
2023-04-23T05:28:40.712Z,41.4
2023-04-23T05:43:50.034Z,45.2
2023-04-23T05:58:59.443Z,39.6
2023-04-23T06:14:08.276Z,40.5
2023-04-23T06:29:17.399Z,42
2023-04-23T06:44:27.162Z,40.3
2023-04-23T06:59:37.631Z,38.4
2023-04-23T07:14:47.976Z,44.5
2023-04-23T07:29:57.947Z,45
2023-04-23T07:45:08.762Z,42
2023-04-23T08:00:18.773Z,45.7
2023-04-23T08:15:28.468Z,38
2023-04-23T08:30:38.116Z,34.2
2023-04-23T08:45:47.783Z,23
2023-04-23T09:00:58.938Z,20.6
2023-04-23T09:16:09.081Z,24.7
2023-04-23T09:31:19.255Z,18.4
2023-04-23T09:46:32.791Z,15.3
2023-04-23T10:01:43.658Z,16.9
2023-04-23T10:16:54.232Z,11.1
2023-04-23T10:32:04.079Z,11.7
2023-04-23T10:47:13.647Z,10.5
2023-04-23T11:02:24.673Z,9
2023-04-23T11:17:35.175Z,9.5
2023-04-23T11:32:45.698Z,10.2
2023-04-23T11:47:56.326Z,8.3
2023-04-23T12:03:07.372Z,7.7
2023-04-23T12:18:18.188Z,6.7
2023-04-23T12:33:28.173Z,6.1
2023-04-23T12:48:38.949Z,5.5
2023-04-23T13:03:49.661Z,5
2023-04-23T13:18:59.612Z,3.6
2023-04-23T13:34:09.115Z,4.1
2023-04-23T13:49:17.417Z,8
2023-04-23T14:04:27.267Z,6.6
2023-04-23T14:19:37.772Z,4.9
2023-04-23T14:34:47.348Z,3
2023-04-23T14:49:57.014Z,4
2023-04-23T15:05:08.276Z,2.7
2023-04-23T15:20:19.659Z,3.4
2023-04-23T15:35:32.029Z,2.1
2023-04-23T15:50:44.122Z,4.2
2023-04-23T16:05:54.536Z,2.9
2023-04-23T16:21:02.454Z,2.8
2023-04-23T16:36:11.642Z,10
2023-04-23T16:51:19.555Z,3.6
2023-04-23T17:06:29.021Z,2.1
2023-04-23T17:21:38.027Z,2
2023-04-23T17:36:46.689Z,3.7
2023-04-23T17:51:55.919Z,3.5
2023-04-23T18:07:04.753Z,3
2023-04-23T18:22:14.541Z,3.1
2023-04-23T18:37:24.052Z,3.7
2023-04-23T18:52:33.513Z,4.9
2023-04-23T19:07:43.010Z,4.1
2023-04-23T19:22:52.580Z,4.7
2023-04-23T19:38:02.475Z,4.2
2023-04-23T19:53:11.410Z,8.6
2023-04-23T20:08:20.983Z,6.3
2023-04-23T20:23:30.458Z,6.6
2023-04-23T20:38:40.619Z,5.9
2023-04-23T20:53:50.053Z,7.3
2023-04-23T21:08:59.745Z,6.9
2023-04-23T21:24:09.883Z,7.7
2023-04-23T21:39:19.306Z,5.3
2023-04-23T21:54:28.396Z,5.2
2023-04-23T22:09:38.845Z,5.2
2023-04-23T22:24:48.461Z,3.5
2023-04-23T22:39:57.665Z,3.4
2023-04-23T22:55:07.114Z,2
2023-04-23T23:10:16.585Z,1.7
2023-04-23T23:25:25.621Z,1.5
2023-04-23T23:40:35.039Z,2.2
2023-04-23T23:55:44.782Z,2.4
